createdAt,value
2019-05-29T00:02:49.642Z,12.48
2019-05-29T00:12:50.352Z,12.88
2019-05-29T00:22:51.059Z,12.68
2019-05-29T00:32:51.876Z,12.96
2019-05-29T00:42:52.539Z,13.95
2019-05-29T00:52:53.263Z,13.45
2019-05-29T01:02:53.994Z,13.33
2019-05-29T01:12:54.861Z,13.06
2019-05-29T01:22:55.568Z,13.15
2019-05-29T01:32:56.233Z,13.62
2019-05-29T01:42:56.959Z,13.61
2019-05-29T01:52:57.640Z,13.55
2019-05-29T02:02:58.545Z,12.94
2019-05-29T02:12:59.197Z,12.66
2019-05-29T02:22:59.900Z,12.31
2019-05-29T02:33:00.573Z,13.17
2019-05-29T02:43:01.350Z,13.86
2019-05-29T02:53:02.117Z,13.80
2019-05-29T03:03:02.927Z,13.47
2019-05-29T03:13:04.814Z,13.60
2019-05-29T03:23:05.696Z,13.92
2019-05-29T03:33:06.485Z,13.35
2019-05-29T03:43:07.158Z,11.44
2019-05-29T03:53:07.947Z,11.78
2019-05-29T04:03:08.702Z,12.41
2019-05-29T04:13:09.377Z,12.79
2019-05-29T04:23:10.134Z,13.22
2019-05-29T04:33:11.143Z,12.53
2019-05-29T04:43:11.782Z,12.86
2019-05-29T04:53:15.475Z,13.09
2019-05-29T05:03:17.146Z,13.10
2019-05-29T05:13:18.426Z,12.56
2019-05-29T05:23:19.133Z,12.30
2019-05-29T05:33:19.916Z,12.31
2019-05-29T05:43:24.088Z,12.63
2019-05-29T05:53:23.252Z,12.30
2019-05-29T06:03:25.988Z,13.63
2019-05-29T06:13:30.663Z,13.48
2019-05-29T06:23:32.695Z,13.19
2019-05-29T06:33:33.539Z,14.91
2019-05-29T06:43:34.222Z,15.27
2019-05-29T06:53:35.706Z,16.64
2019-05-29T07:03:37.655Z,14.02
2019-05-29T07:13:41.783Z,15.05
2019-05-29T07:23:41.301Z,13.11
2019-05-29T07:33:43.175Z,16.48
2019-05-29T07:43:44.077Z,14.12
2019-05-29T07:53:44.774Z,17.51
2019-05-29T08:03:45.529Z,17.55
2019-05-29T08:13:46.187Z,15.32
2019-05-29T08:23:48.575Z,16.86
2019-05-29T08:33:49.304Z,15.39
2019-05-29T08:43:50.776Z,18.69
2019-05-29T08:53:52.486Z,15.99
2019-05-29T09:03:54.303Z,16.54
2019-05-29T09:13:54.997Z,17.77
2019-05-29T09:23:58.828Z,18.39
2019-05-29T09:33:59.822Z,17.86
2019-05-29T09:44:00.511Z,17.59
2019-05-29T09:54:03.460Z,17.37
2019-05-29T10:04:06.203Z,18.31
2019-05-29T10:14:06.950Z,15.94
2019-05-29T10:24:11.619Z,17.12
2019-05-29T10:34:17.494Z,16.00
2019-05-29T10:44:18.191Z,18.15
2019-05-29T10:54:28.151Z,16.52
2019-05-29T11:04:30.925Z,17.11
2019-05-29T11:14:34.275Z,16.21
2019-05-29T11:24:34.906Z,19.49
2019-05-29T11:34:35.626Z,18.42
2019-05-29T11:44:36.604Z,17.55
2019-05-29T11:54:55.595Z,21.33
2019-05-29T12:05:06.251Z,21.43
2019-05-29T12:15:14.265Z,20.63
2019-05-29T12:25:11.604Z,18.20
2019-05-29T12:35:18.183Z,17.60
2019-05-29T12:45:20.999Z,19.28
2019-05-29T12:55:22.748Z,20.48
2019-05-29T13:05:24.828Z,18.40
2019-05-29T13:15:25.714Z,18.73
2019-05-29T13:25:26.387Z,22.21
2019-05-29T13:35:29.141Z,22.00
2019-05-29T13:45:30.762Z,19.95
2019-05-29T13:55:33.250Z,20.63
2019-05-29T14:05:35.906Z,23.87
2019-05-29T14:15:36.650Z,23.94
2019-05-29T14:25:37.345Z,23.24
2019-05-29T14:35:39.098Z,20.27
2019-05-29T14:45:39.764Z,21.89
2019-05-29T14:55:40.486Z,23.66
2019-05-29T15:05:41.134Z,24.08
2019-05-29T15:15:42.829Z,24.63
2019-05-29T15:25:43.505Z,24.17
2019-05-29T15:35:45.236Z,21.86
2019-05-29T15:45:45.910Z,21.75
2019-05-29T15:55:46.807Z,22.08
2019-05-29T16:05:47.564Z,20.46
2019-05-29T16:15:51.297Z,22.38
2019-05-29T16:25:53.146Z,21.49
2019-05-29T16:35:53.815Z,21.11
2019-05-29T16:45:54.602Z,21.20
2019-05-29T16:55:55.282Z,23.53
2019-05-29T17:05:56.041Z,23.27
2019-05-29T17:15:56.712Z,22.78
2019-05-29T17:26:10.209Z,21.65
2019-05-29T17:36:00.024Z,23.08
2019-05-29T17:46:00.873Z,23.10
2019-05-29T17:56:01.611Z,23.26
2019-05-29T18:06:02.549Z,23.83
2019-05-29T18:16:03.227Z,23.10
2019-05-29T18:26:03.901Z,23.29
2019-05-29T18:36:04.580Z,22.45
2019-05-29T18:46:05.263Z,20.05
2019-05-29T18:56:05.932Z,18.13
2019-05-29T19:06:07.644Z,17.64
2019-05-29T19:16:08.435Z,16.37
2019-05-29T19:26:09.259Z,16.11
2019-05-29T19:36:09.998Z,15.44
2019-05-29T19:46:10.787Z,15.32
2019-05-29T19:56:11.593Z,15.23
2019-05-29T20:06:12.349Z,15.50
2019-05-29T20:16:13.017Z,15.32
2019-05-29T20:26:13.706Z,14.95
2019-05-29T20:36:15.394Z,15.04
2019-05-29T20:46:19.105Z,14.44
2019-05-29T20:56:19.773Z,14.08
2019-05-29T21:06:22.429Z,14.05
2019-05-29T21:16:23.294Z,14.10
2019-05-29T21:26:24.092Z,14.06
2019-05-29T21:36:24.904Z,14.22
2019-05-29T21:46:26.594Z,14.36
2019-05-29T21:56:27.276Z,14.28
2019-05-29T22:06:28.156Z,14.29
2019-05-29T22:16:29.052Z,14.30
2019-05-29T22:26:29.749Z,14.07
2019-05-29T22:36:30.614Z,13.96
2019-05-29T22:46:31.358Z,13.93
2019-05-29T22:56:33.081Z,14.34
2019-05-29T23:06:33.859Z,14.48
2019-05-29T23:16:34.619Z,14.43
2019-05-29T23:26:35.341Z,14.55
2019-05-29T23:36:36.116Z,14.77
2019-05-29T23:46:36.841Z,14.73
2019-05-29T23:56:37.516Z,14.64
